Terminal Aerodrome Forecast
Issued by NWS Lake Charles, LA

Home | Current Version | Previous Version | Text Only | Print | Product List | Glossary On
Versions: 1 2 3 4 5 6 7 8 9 10 11 12 13 14 15 16 17 18 19 20 21
623
FTUS44 KLCH 282332
TAFLFT
TAF
KLFT 282332Z 2900/2924 16008G16KT P6SM SKC
     FM290500 16006KT P6SM BKN015
     FM290800 15006KT 5SM BR OVC007
     FM291300 16007KT P6SM OVC025
     FM291800 18013KT P6SM BKN035=

USA.gov is the U.S. government's official web portal to all federal, state and local government web resources and services.